KQA533 DNMM-HKJK
Flight info
| Callsign | KQA533 |
|---|---|
| Flight time | 4h 29m |
| Altitude | 39000 |
| Route | BOTBO1Q BOTBO UR984 NLY UL434 NN UL433 NAKAT NAKAT3C |
| Aircraft | B788/H-SDE1E2E3FGHIJ2J3J4J5M1RWXYZ/LB1D1 |
Departure
| Time | 2026-05-04 11:10 |
|---|---|
| Airport | Murtala Muhammed International Airport (DNMM) |
Arrival
| Time | 2026-05-04 15:39 |
|---|---|
| Airport | Jomo Kenyatta International Airport (HKJK) |
| Time | Latitude | Longitude | Altitude | Speed | Heading |
|---|---|---|---|---|---|
| 2026-05-04 11:00 | 6.58016 | 3.32031 | 93 ft | 0 kts | 247° |
| 2026-05-04 11:01 | 6.58009 | 3.32104 | 97 ft | 2 kts | 338° |
| 2026-05-04 11:05 | 6.58179 | 3.31858 | 89 ft | 14 kts | 247° |
| 2026-05-04 11:06 | 6.58137 | 3.31758 | 87 ft | 17 kts | 246° |
| 2026-05-04 11:06 | 6.58085 | 3.31650 | 85 ft | 17 kts | 245° |
| 2026-05-04 11:06 | 6.58088 | 3.31545 | 83 ft | 14 kts | 320° |
| 2026-05-04 11:06 | 6.58174 | 3.31524 | 84 ft | 12 kts | 355° |
| 2026-05-04 11:08 | 6.58524 | 3.31318 | 85 ft | 61 kts | 179° |
| 2026-05-04 11:10 | 6.49776 | 3.31897 | 4803 ft | 211 kts | 165° |
| 2026-05-04 11:12 | 6.39389 | 3.34718 | 10482 ft | 222 kts | 135° |
| 2026-05-04 11:12 | 6.38366 | 3.35861 | 11094 ft | 226 kts | 114° |
| 2026-05-04 11:12 | 6.37887 | 3.37429 | 11374 ft | 247 kts | 97° |
| 2026-05-04 11:12 | 6.37626 | 3.39232 | 11633 ft | 274 kts | 97° |
| 2026-05-04 11:13 | 6.37347 | 3.41216 | 11883 ft | 300 kts | 97° |
| 2026-05-04 11:13 | 6.37025 | 3.43378 | 12076 ft | 326 kts | 98° |
| 2026-05-04 11:13 | 6.36671 | 3.45712 | 12301 ft | 347 kts | 98° |
| 2026-05-04 11:13 | 6.36310 | 3.48118 | 13119 ft | 350 kts | 98° |
| 2026-05-04 11:14 | 6.35948 | 3.50555 | 13865 ft | 355 kts | 98° |
| 2026-05-04 11:14 | 6.35580 | 3.53025 | 14571 ft | 359 kts | 98° |
| 2026-05-04 11:14 | 6.35208 | 3.55517 | 15269 ft | 363 kts | 97° |
| 2026-05-04 11:16 | 6.32477 | 3.73779 | 19551 ft | 393 kts | 97° |
| 2026-05-04 11:16 | 6.32073 | 3.76478 | 20043 ft | 398 kts | 97° |
| 2026-05-04 11:16 | 6.31657 | 3.79249 | 20537 ft | 403 kts | 97° |
| 2026-05-04 11:17 | 6.31237 | 3.82055 | 21030 ft | 408 kts | 97° |
| 2026-05-04 11:17 | 6.30812 | 3.84891 | 21492 ft | 413 kts | 97° |
| 2026-05-04 11:19 | 6.27697 | 4.05634 | 24491 ft | 442 kts | 98° |
| 2026-05-04 11:19 | 6.27237 | 4.08696 | 24880 ft | 444 kts | 98° |
| 2026-05-04 11:19 | 6.26773 | 4.11777 | 25257 ft | 447 kts | 98° |
| 2026-05-04 11:19 | 6.26309 | 4.14858 | 25643 ft | 450 kts | 98° |
| 2026-05-04 11:20 | 6.25840 | 4.17978 | 26000 ft | 453 kts | 98° |
| 2026-05-04 11:20 | 6.25367 | 4.21118 | 26364 ft | 456 kts | 98° |
| 2026-05-04 11:20 | 6.24891 | 4.24276 | 26706 ft | 459 kts | 98° |
| 2026-05-04 11:20 | 6.24411 | 4.27459 | 27052 ft | 462 kts | 98° |
| 2026-05-04 11:22 | 6.15474 | 4.48614 | 29291 ft | 482 kts | 116° |
| 2026-05-04 11:22 | 6.14021 | 4.51659 | 29610 ft | 484 kts | 116° |
| 2026-05-04 11:23 | 6.12563 | 4.54715 | 29907 ft | 487 kts | 116° |
| 2026-05-04 11:23 | 6.11100 | 4.57790 | 30183 ft | 489 kts | 116° |
| 2026-05-04 11:24 | 6.02204 | 4.76459 | 31679 ft | 499 kts | 116° |
| 2026-05-04 11:25 | 6.00703 | 4.79606 | 31923 ft | 500 kts | 116° |
| 2026-05-04 11:25 | 5.99200 | 4.82758 | 32140 ft | 501 kts | 116° |
| 2026-05-04 11:25 | 5.97692 | 4.85920 | 32391 ft | 502 kts | 116° |
| 2026-05-04 11:26 | 5.94680 | 4.92234 | 33038 ft | 500 kts | 116° |
| 2026-05-04 11:27 | 5.84200 | 5.14138 | 34924 ft | 498 kts | 116° |
| 2026-05-04 11:28 | 5.82700 | 5.17269 | 35171 ft | 498 kts | 116° |
| 2026-05-04 11:28 | 5.81198 | 5.20401 | 35402 ft | 498 kts | 116° |
| 2026-05-04 11:28 | 5.79695 | 5.23534 | 35630 ft | 498 kts | 116° |
| 2026-05-04 11:28 | 5.78192 | 5.26668 | 35868 ft | 498 kts | 116° |
| 2026-05-04 11:29 | 5.76690 | 5.29800 | 36098 ft | 498 kts | 116° |
| 2026-05-04 11:29 | 5.75187 | 5.32933 | 36322 ft | 498 kts | 116° |
| 2026-05-04 11:29 | 5.73684 | 5.36064 | 36546 ft | 498 kts | 116° |
| 2026-05-04 11:29 | 5.72181 | 5.39195 | 36752 ft | 498 kts | 116° |
| 2026-05-04 11:31 | 5.62148 | 5.60086 | 38220 ft | 498 kts | 116° |
| 2026-05-04 11:33 | 5.51608 | 5.82008 | 38938 ft | 496 kts | 116° |
| 2026-05-04 11:33 | 5.48614 | 5.88230 | 38939 ft | 494 kts | 116° |
| 2026-05-04 11:34 | 5.45625 | 5.94439 | 38951 ft | 494 kts | 116° |
| 2026-05-04 11:34 | 5.42636 | 6.00649 | 38942 ft | 494 kts | 116° |
| 2026-05-04 11:35 | 5.39646 | 6.06858 | 38948 ft | 494 kts | 116° |
| 2026-05-04 11:35 | 5.36653 | 6.13068 | 38939 ft | 494 kts | 116° |
| 2026-05-04 11:36 | 5.33792 | 6.19276 | 38963 ft | 493 kts | 111° |
| 2026-05-04 11:36 | 5.31280 | 6.25689 | 38956 ft | 494 kts | 111° |
| 2026-05-04 11:37 | 5.28754 | 6.32104 | 38957 ft | 494 kts | 111° |
| 2026-05-04 11:37 | 5.26237 | 6.38513 | 38959 ft | 494 kts | 111° |
| 2026-05-04 11:38 | 5.23716 | 6.44916 | 38955 ft | 493 kts | 111° |
| 2026-05-04 11:38 | 5.21201 | 6.51312 | 38955 ft | 493 kts | 111° |
| 2026-05-04 11:39 | 5.18683 | 6.57708 | 38952 ft | 493 kts | 111° |
| 2026-05-04 11:41 | 5.09892 | 6.80098 | 38953 ft | 493 kts | 111° |
| 2026-05-04 11:41 | 5.07381 | 6.86490 | 38949 ft | 492 kts | 111° |
| 2026-05-04 11:42 | 5.04869 | 6.92883 | 38952 ft | 492 kts | 111° |
| 2026-05-04 11:42 | 5.02200 | 6.99150 | 38949 ft | 492 kts | 114° |
| 2026-05-04 11:43 | 4.99395 | 7.05407 | 38953 ft | 492 kts | 114° |
| 2026-05-04 11:43 | 4.96551 | 7.11647 | 38951 ft | 492 kts | 114° |
| 2026-05-04 11:44 | 4.93729 | 7.17887 | 38954 ft | 491 kts | 114° |
| 2026-05-04 11:44 | 4.90899 | 7.24121 | 38949 ft | 491 kts | 114° |
| 2026-05-04 11:45 | 4.88076 | 7.30344 | 38949 ft | 490 kts | 114° |
| 2026-05-04 11:45 | 4.85258 | 7.36553 | 38949 ft | 488 kts | 114° |
| 2026-05-04 11:46 | 4.82446 | 7.42746 | 38947 ft | 487 kts | 114° |
| 2026-05-04 11:46 | 4.79645 | 7.48917 | 38945 ft | 486 kts | 114° |
| 2026-05-04 11:47 | 4.76848 | 7.55074 | 38945 ft | 484 kts | 115° |
| 2026-05-04 11:47 | 4.74062 | 7.61205 | 38936 ft | 482 kts | 114° |
| 2026-05-04 11:48 | 4.71281 | 7.67324 | 38936 ft | 482 kts | 115° |
| 2026-05-04 11:48 | 4.68584 | 7.73475 | 38945 ft | 482 kts | 111° |
| 2026-05-04 11:49 | 4.66108 | 7.79718 | 38945 ft | 482 kts | 112° |
| 2026-05-04 11:49 | 4.63638 | 7.85966 | 38951 ft | 482 kts | 112° |
| 2026-05-04 11:50 | 4.61187 | 7.92170 | 38948 ft | 482 kts | 112° |
| 2026-05-04 11:50 | 4.58712 | 7.98416 | 38951 ft | 482 kts | 112° |
| 2026-05-04 11:51 | 4.56238 | 8.04675 | 38951 ft | 483 kts | 112° |
| 2026-05-04 11:51 | 4.53756 | 8.10941 | 38951 ft | 484 kts | 112° |
| 2026-05-04 11:52 | 4.51271 | 8.17217 | 38951 ft | 485 kts | 112° |
| 2026-05-04 11:52 | 4.48782 | 8.23499 | 38954 ft | 486 kts | 112° |
| 2026-05-04 11:53 | 4.46218 | 8.29762 | 38960 ft | 486 kts | 114° |
| 2026-05-04 11:53 | 4.43562 | 8.35995 | 38955 ft | 487 kts | 113° |
| 2026-05-04 11:55 | 4.33287 | 8.61129 | 38955 ft | 488 kts | 106° |
| 2026-05-04 11:56 | 4.31370 | 8.67647 | 38959 ft | 488 kts | 107° |
| 2026-05-04 11:56 | 4.29407 | 8.74154 | 38957 ft | 488 kts | 106° |
| 2026-05-04 11:57 | 4.27470 | 8.80668 | 38962 ft | 488 kts | 106° |
| 2026-05-04 11:57 | 4.25531 | 8.87133 | 38961 ft | 488 kts | 107° |
| 2026-05-04 11:58 | 4.23586 | 8.93645 | 38972 ft | 487 kts | 107° |
| 2026-05-04 11:58 | 4.21639 | 9.00146 | 38976 ft | 487 kts | 107° |
| 2026-05-04 11:59 | 4.19697 | 9.06636 | 38973 ft | 486 kts | 107° |
| 2026-05-04 11:59 | 4.17756 | 9.13119 | 38973 ft | 485 kts | 107° |
| 2026-05-04 12:00 | 4.15816 | 9.19594 | 38968 ft | 485 kts | 107° |
| 2026-05-04 12:00 | 4.13878 | 9.26064 | 38966 ft | 485 kts | 107° |
| 2026-05-04 12:01 | 4.11939 | 9.32533 | 38964 ft | 485 kts | 107° |
| 2026-05-04 12:02 | 4.05147 | 9.55177 | 38941 ft | 486 kts | 107° |
| 2026-05-04 12:03 | 4.03201 | 9.61658 | 38943 ft | 486 kts | 107° |
| 2026-05-04 12:03 | 4.01252 | 9.68150 | 38952 ft | 487 kts | 107° |
| 2026-05-04 12:04 | 3.99364 | 9.74676 | 38957 ft | 488 kts | 100° |
| 2026-05-04 12:04 | 3.98351 | 9.81410 | 38950 ft | 490 kts | 99° |
| 2026-05-04 12:05 | 3.97364 | 9.88159 | 38949 ft | 489 kts | 99° |
| 2026-05-04 12:05 | 3.96374 | 9.94851 | 38950 ft | 489 kts | 99° |
| 2026-05-04 12:06 | 3.95385 | 10.01597 | 38954 ft | 490 kts | 99° |
| 2026-05-04 12:06 | 3.94388 | 10.08349 | 38955 ft | 490 kts | 99° |
| 2026-05-04 12:07 | 3.93394 | 10.15102 | 38958 ft | 489 kts | 99° |
| 2026-05-04 12:07 | 3.92401 | 10.21838 | 38960 ft | 489 kts | 99° |
| 2026-05-04 12:08 | 3.91410 | 10.28573 | 38961 ft | 488 kts | 99° |
| 2026-05-04 12:08 | 3.90417 | 10.35297 | 38966 ft | 488 kts | 99° |
| 2026-05-04 12:09 | 3.89427 | 10.42016 | 38968 ft | 488 kts | 99° |
| 2026-05-04 12:09 | 3.88434 | 10.48739 | 38976 ft | 489 kts | 99° |
| 2026-05-04 12:10 | 3.87438 | 10.55483 | 38977 ft | 490 kts | 99° |
| 2026-05-04 12:10 | 3.86440 | 10.62236 | 38987 ft | 490 kts | 99° |
| 2026-05-04 12:11 | 3.85442 | 10.68989 | 38991 ft | 490 kts | 99° |
| 2026-05-04 12:11 | 3.84442 | 10.75750 | 38997 ft | 491 kts | 99° |
| 2026-05-04 12:12 | 3.83441 | 10.82510 | 39006 ft | 491 kts | 99° |
| 2026-05-04 12:12 | 3.82440 | 10.89269 | 39010 ft | 491 kts | 99° |
| 2026-05-04 12:14 | 3.78432 | 11.16299 | 39028 ft | 492 kts | 99° |
| 2026-05-04 12:15 | 3.77426 | 11.23070 | 39040 ft | 492 kts | 99° |
| 2026-05-04 12:15 | 3.76420 | 11.29840 | 39053 ft | 492 kts | 99° |
| 2026-05-04 12:16 | 3.75413 | 11.36612 | 39068 ft | 492 kts | 99° |
| 2026-05-04 12:16 | 3.74407 | 11.43380 | 39056 ft | 491 kts | 99° |
| 2026-05-04 12:17 | 3.73400 | 11.50139 | 39053 ft | 491 kts | 99° |
| 2026-05-04 12:17 | 3.72317 | 11.56873 | 39072 ft | 489 kts | 104° |
| 2026-05-04 12:18 | 3.70854 | 11.63529 | 39056 ft | 489 kts | 103° |
| 2026-05-04 12:18 | 3.69406 | 11.70171 | 39052 ft | 488 kts | 103° |
| 2026-05-04 12:19 | 3.67950 | 11.76808 | 39044 ft | 488 kts | 103° |
| 2026-05-04 12:19 | 3.66746 | 11.82321 | 39038 ft | 488 kts | 103° |
| 2026-05-04 12:20 | 3.65291 | 11.88960 | 39028 ft | 488 kts | 103° |
| 2026-05-04 12:20 | 3.63838 | 11.95594 | 39023 ft | 488 kts | 103° |
| 2026-05-04 12:21 | 3.62384 | 12.02227 | 39021 ft | 488 kts | 103° |
| 2026-05-04 12:21 | 3.60930 | 12.08861 | 39016 ft | 488 kts | 103° |
| 2026-05-04 12:22 | 3.59474 | 12.15501 | 39013 ft | 489 kts | 103° |
| 2026-05-04 12:22 | 3.58017 | 12.22146 | 39014 ft | 489 kts | 103° |
| 2026-05-04 12:23 | 3.56556 | 12.28799 | 39012 ft | 490 kts | 103° |
| 2026-05-04 12:23 | 3.55095 | 12.35456 | 39009 ft | 490 kts | 103° |
| 2026-05-04 12:24 | 3.53630 | 12.42128 | 39005 ft | 491 kts | 103° |
| 2026-05-04 12:24 | 3.52164 | 12.48802 | 39001 ft | 491 kts | 103° |
| 2026-05-04 12:25 | 3.50697 | 12.55478 | 39000 ft | 491 kts | 103° |
| 2026-05-04 12:25 | 3.49229 | 12.62157 | 38993 ft | 491 kts | 103° |
| 2026-05-04 12:26 | 3.47762 | 12.68828 | 38991 ft | 491 kts | 103° |
| 2026-05-04 12:26 | 3.46295 | 12.75490 | 38984 ft | 490 kts | 103° |
| 2026-05-04 12:27 | 3.44828 | 12.82156 | 38979 ft | 490 kts | 103° |
| 2026-05-04 12:27 | 3.43363 | 12.88812 | 38977 ft | 490 kts | 103° |
| 2026-05-04 12:28 | 3.41905 | 12.95428 | 38973 ft | 490 kts | 103° |
| 2026-05-04 12:28 | 3.40437 | 13.02091 | 38974 ft | 490 kts | 103° |
| 2026-05-04 12:29 | 3.38968 | 13.08757 | 38965 ft | 491 kts | 103° |
| 2026-05-04 12:29 | 3.37495 | 13.15436 | 38966 ft | 491 kts | 103° |
| 2026-05-04 12:30 | 3.36022 | 13.22115 | 38958 ft | 492 kts | 103° |
| 2026-05-04 12:30 | 3.34546 | 13.28803 | 38952 ft | 493 kts | 103° |
| 2026-05-04 12:31 | 3.33066 | 13.35510 | 38953 ft | 494 kts | 103° |
| 2026-05-04 12:31 | 3.31584 | 13.42222 | 38946 ft | 494 kts | 103° |
| 2026-05-04 12:32 | 3.29357 | 13.52304 | 38939 ft | 495 kts | 103° |
| 2026-05-04 12:33 | 3.27870 | 13.59032 | 38936 ft | 495 kts | 103° |
| 2026-05-04 12:33 | 3.26382 | 13.65765 | 38932 ft | 495 kts | 102° |
| 2026-05-04 12:34 | 3.24893 | 13.72499 | 38929 ft | 496 kts | 102° |
| 2026-05-04 12:34 | 3.23403 | 13.79233 | 38924 ft | 496 kts | 102° |
| 2026-05-04 12:35 | 3.21914 | 13.85961 | 38922 ft | 495 kts | 102° |
| 2026-05-04 12:35 | 3.20428 | 13.92675 | 38915 ft | 494 kts | 102° |
| 2026-05-04 12:36 | 3.18942 | 13.99387 | 38913 ft | 494 kts | 102° |
| 2026-05-04 12:36 | 3.17455 | 14.06099 | 38915 ft | 494 kts | 102° |
| 2026-05-04 12:37 | 3.15970 | 14.12803 | 38912 ft | 493 kts | 102° |
| 2026-05-04 12:37 | 3.14484 | 14.19506 | 38913 ft | 494 kts | 102° |
| 2026-05-04 12:38 | 3.12998 | 14.26207 | 38909 ft | 493 kts | 102° |
| 2026-05-04 12:38 | 3.11523 | 14.32858 | 38905 ft | 493 kts | 102° |
| 2026-05-04 12:39 | 3.10040 | 14.39541 | 38906 ft | 492 kts | 102° |
| 2026-05-04 12:39 | 3.08558 | 14.46223 | 38904 ft | 491 kts | 102° |
| 2026-05-04 12:40 | 3.07077 | 14.52894 | 38901 ft | 491 kts | 102° |
| 2026-05-04 12:40 | 3.05595 | 14.59566 | 38895 ft | 491 kts | 102° |
| 2026-05-04 12:41 | 3.04114 | 14.66234 | 38895 ft | 491 kts | 102° |
| 2026-05-04 12:41 | 3.02634 | 14.72896 | 38884 ft | 490 kts | 102° |
| 2026-05-04 12:42 | 3.01155 | 14.79547 | 38888 ft | 490 kts | 102° |
| 2026-05-04 12:42 | 2.99677 | 14.86194 | 38887 ft | 489 kts | 102° |
| 2026-05-04 12:43 | 2.98201 | 14.92830 | 38883 ft | 488 kts | 102° |
| 2026-05-04 12:43 | 2.96729 | 14.99452 | 38877 ft | 487 kts | 102° |
| 2026-05-04 12:44 | 2.95256 | 15.06069 | 38875 ft | 487 kts | 102° |
| 2026-05-04 12:44 | 2.93784 | 15.12680 | 38873 ft | 487 kts | 102° |
| 2026-05-04 12:45 | 2.92313 | 15.19286 | 38876 ft | 487 kts | 102° |
| 2026-05-04 12:45 | 2.90842 | 15.25893 | 38874 ft | 486 kts | 102° |
| 2026-05-04 12:46 | 2.89371 | 15.32494 | 38876 ft | 486 kts | 102° |
| 2026-05-04 12:46 | 2.87900 | 15.39095 | 38873 ft | 486 kts | 102° |
| 2026-05-04 12:47 | 2.86429 | 15.45691 | 38874 ft | 486 kts | 102° |
| 2026-05-04 12:47 | 2.84970 | 15.52240 | 38871 ft | 485 kts | 102° |
| 2026-05-04 12:48 | 2.83490 | 15.58872 | 38870 ft | 485 kts | 102° |
| 2026-05-04 12:48 | 2.82029 | 15.65422 | 38870 ft | 486 kts | 102° |
| 2026-05-04 12:49 | 2.80557 | 15.72018 | 38867 ft | 486 kts | 102° |
| 2026-05-04 12:49 | 2.79083 | 15.78622 | 38871 ft | 486 kts | 102° |
| 2026-05-04 12:50 | 2.77609 | 15.85224 | 38868 ft | 487 kts | 102° |
| 2026-05-04 12:50 | 2.76132 | 15.91838 | 38865 ft | 487 kts | 102° |
| 2026-05-04 12:51 | 2.74652 | 15.98460 | 38861 ft | 488 kts | 102° |
| 2026-05-04 12:51 | 2.73172 | 16.05087 | 38858 ft | 489 kts | 102° |
| 2026-05-04 12:52 | 2.71689 | 16.11721 | 38858 ft | 489 kts | 102° |
| 2026-05-04 12:52 | 2.70206 | 16.18353 | 38856 ft | 489 kts | 102° |
| 2026-05-04 12:53 | 2.68722 | 16.24990 | 38857 ft | 489 kts | 102° |
| 2026-05-04 12:53 | 2.67235 | 16.31635 | 38856 ft | 490 kts | 102° |
| 2026-05-04 12:54 | 2.65748 | 16.38285 | 38849 ft | 490 kts | 102° |
| 2026-05-04 12:54 | 2.64258 | 16.44941 | 38853 ft | 491 kts | 102° |
| 2026-05-04 12:55 | 2.62767 | 16.51600 | 38852 ft | 491 kts | 102° |
| 2026-05-04 12:55 | 2.61275 | 16.58264 | 38852 ft | 491 kts | 102° |
| 2026-05-04 12:56 | 2.59781 | 16.64933 | 38850 ft | 491 kts | 102° |
| 2026-05-04 12:56 | 2.58289 | 16.71596 | 38846 ft | 491 kts | 102° |
| 2026-05-04 12:57 | 2.56806 | 16.78214 | 38849 ft | 491 kts | 102° |
| 2026-05-04 12:57 | 2.55312 | 16.84877 | 38848 ft | 491 kts | 102° |
| 2026-05-04 12:58 | 2.53819 | 16.91534 | 38848 ft | 491 kts | 102° |
| 2026-05-04 12:58 | 2.52326 | 16.98195 | 38847 ft | 491 kts | 102° |
| 2026-05-04 12:59 | 2.50830 | 17.04860 | 38844 ft | 491 kts | 102° |
| 2026-05-04 12:59 | 2.49337 | 17.11515 | 38849 ft | 490 kts | 102° |
| 2026-05-04 13:00 | 2.47844 | 17.18166 | 38853 ft | 490 kts | 102° |
| 2026-05-04 13:00 | 2.46353 | 17.24809 | 38848 ft | 490 kts | 102° |
| 2026-05-04 13:01 | 2.44862 | 17.31451 | 38848 ft | 489 kts | 102° |
| 2026-05-04 13:01 | 2.43373 | 17.38079 | 38847 ft | 488 kts | 102° |
| 2026-05-04 13:02 | 2.41887 | 17.44694 | 38840 ft | 487 kts | 102° |
| 2026-05-04 13:02 | 2.40401 | 17.51305 | 38836 ft | 487 kts | 102° |
| 2026-05-04 13:03 | 2.38918 | 17.57904 | 38834 ft | 487 kts | 102° |
| 2026-05-04 13:03 | 2.37434 | 17.64504 | 38835 ft | 486 kts | 102° |
| 2026-05-04 13:04 | 2.35952 | 17.71101 | 38834 ft | 486 kts | 102° |
| 2026-05-04 13:04 | 2.34486 | 17.77655 | 38834 ft | 486 kts | 101° |
| 2026-05-04 13:05 | 2.33081 | 17.84268 | 38834 ft | 486 kts | 101° |
| 2026-05-04 13:05 | 2.31648 | 17.90871 | 38836 ft | 486 kts | 101° |
| 2026-05-04 13:06 | 2.30229 | 17.97473 | 38834 ft | 485 kts | 101° |
| 2026-05-04 13:06 | 2.28806 | 18.04068 | 38833 ft | 485 kts | 101° |
| 2026-05-04 13:07 | 2.27383 | 18.10662 | 38835 ft | 485 kts | 101° |
| 2026-05-04 13:07 | 2.26031 | 18.16108 | 38839 ft | 486 kts | 103° |
| 2026-05-04 13:08 | 2.24446 | 18.22672 | 38837 ft | 486 kts | 103° |
| 2026-05-04 13:08 | 2.22789 | 18.29217 | 38838 ft | 485 kts | 103° |
| 2026-05-04 13:09 | 2.21175 | 18.35766 | 38834 ft | 485 kts | 103° |
| 2026-05-04 13:09 | 2.19539 | 18.42304 | 38831 ft | 484 kts | 103° |
| 2026-05-04 13:10 | 2.17916 | 18.48837 | 38832 ft | 484 kts | 103° |
| 2026-05-04 13:10 | 2.16317 | 18.55369 | 38831 ft | 484 kts | 103° |
| 2026-05-04 13:11 | 2.14729 | 18.61904 | 38832 ft | 483 kts | 103° |
| 2026-05-04 13:11 | 2.13134 | 18.68424 | 38828 ft | 483 kts | 103° |
| 2026-05-04 13:12 | 2.11546 | 18.74948 | 38827 ft | 483 kts | 103° |
| 2026-05-04 13:12 | 2.09953 | 18.81466 | 38828 ft | 482 kts | 103° |
| 2026-05-04 13:13 | 2.08363 | 18.87983 | 38821 ft | 482 kts | 103° |
| 2026-05-04 13:13 | 2.06773 | 18.94496 | 38822 ft | 483 kts | 103° |
| 2026-05-04 13:14 | 2.05182 | 19.01014 | 38822 ft | 483 kts | 103° |
| 2026-05-04 13:14 | 2.03590 | 19.07530 | 38820 ft | 483 kts | 103° |
| 2026-05-04 13:15 | 2.01998 | 19.14050 | 38819 ft | 483 kts | 103° |
| 2026-05-04 13:15 | 2.00405 | 19.20569 | 38817 ft | 483 kts | 103° |
| 2026-05-04 13:16 | 1.98791 | 19.27086 | 38821 ft | 483 kts | 104° |
| 2026-05-04 13:16 | 1.97182 | 19.33602 | 38817 ft | 483 kts | 103° |
| 2026-05-04 13:17 | 1.95584 | 19.40068 | 38817 ft | 482 kts | 104° |
| 2026-05-04 13:17 | 1.93975 | 19.46577 | 38816 ft | 482 kts | 103° |
| 2026-05-04 13:18 | 1.92375 | 19.53086 | 38816 ft | 482 kts | 103° |
| 2026-05-04 13:18 | 1.90789 | 19.59597 | 38818 ft | 482 kts | 103° |
| 2026-05-04 13:19 | 1.89195 | 19.66098 | 38819 ft | 481 kts | 103° |
| 2026-05-04 13:19 | 1.87608 | 19.72598 | 38816 ft | 481 kts | 103° |
| 2026-05-04 13:20 | 1.86016 | 19.79099 | 38817 ft | 482 kts | 103° |
| 2026-05-04 13:20 | 1.84424 | 19.85608 | 38823 ft | 482 kts | 103° |
| 2026-05-04 13:21 | 1.82832 | 19.92112 | 38815 ft | 482 kts | 103° |
| 2026-05-04 13:21 | 1.81230 | 19.98616 | 38820 ft | 482 kts | 104° |
| 2026-05-04 13:22 | 1.79594 | 20.05108 | 38821 ft | 482 kts | 103° |
| 2026-05-04 13:22 | 1.77978 | 20.11608 | 38821 ft | 482 kts | 103° |
| 2026-05-04 13:23 | 1.76350 | 20.18105 | 38821 ft | 482 kts | 103° |
| 2026-05-04 13:23 | 1.74726 | 20.24609 | 38820 ft | 482 kts | 103° |
| 2026-05-04 13:24 | 1.73099 | 20.31113 | 38817 ft | 482 kts | 103° |
| 2026-05-04 13:24 | 1.71473 | 20.37617 | 38823 ft | 482 kts | 103° |
| 2026-05-04 13:25 | 1.69033 | 20.47373 | 38825 ft | 482 kts | 103° |
| 2026-05-04 13:25 | 1.67407 | 20.53876 | 38822 ft | 482 kts | 103° |
| 2026-05-04 13:26 | 1.65789 | 20.60343 | 38822 ft | 482 kts | 103° |
| 2026-05-04 13:26 | 1.64212 | 20.66859 | 38823 ft | 482 kts | 103° |
| 2026-05-04 13:27 | 1.62619 | 20.73370 | 38820 ft | 482 kts | 103° |
| 2026-05-04 13:27 | 1.61030 | 20.79887 | 38820 ft | 482 kts | 103° |
| 2026-05-04 13:28 | 1.59440 | 20.86401 | 38821 ft | 482 kts | 103° |
| 2026-05-04 13:28 | 1.57851 | 20.92908 | 38821 ft | 482 kts | 103° |
| 2026-05-04 13:29 | 1.56264 | 20.99412 | 38820 ft | 482 kts | 103° |
| 2026-05-04 13:29 | 1.54674 | 21.05925 | 38824 ft | 482 kts | 103° |
| 2026-05-04 13:30 | 1.53085 | 21.12432 | 38823 ft | 482 kts | 103° |
| 2026-05-04 13:30 | 1.51496 | 21.18938 | 38826 ft | 482 kts | 103° |
| 2026-05-04 13:31 | 1.49906 | 21.25446 | 38821 ft | 482 kts | 103° |
| 2026-05-04 13:31 | 1.48316 | 21.31955 | 38821 ft | 482 kts | 103° |
| 2026-05-04 13:32 | 1.46726 | 21.38463 | 38823 ft | 482 kts | 103° |
| 2026-05-04 13:32 | 1.45136 | 21.44970 | 38826 ft | 482 kts | 103° |
| 2026-05-04 13:33 | 1.43545 | 21.51482 | 38825 ft | 482 kts | 103° |
| 2026-05-04 13:33 | 1.41940 | 21.57988 | 38830 ft | 482 kts | 103° |
| 2026-05-04 13:34 | 1.40329 | 21.64499 | 38828 ft | 483 kts | 103° |
| 2026-05-04 13:34 | 1.38722 | 21.71014 | 38826 ft | 483 kts | 103° |
| 2026-05-04 13:35 | 1.36316 | 21.80750 | 38825 ft | 483 kts | 103° |
| 2026-05-04 13:36 | 1.34707 | 21.87264 | 38831 ft | 483 kts | 103° |
| 2026-05-04 13:36 | 1.33098 | 21.93772 | 38830 ft | 482 kts | 103° |
| 2026-05-04 13:37 | 1.31490 | 22.00282 | 38830 ft | 482 kts | 103° |
| 2026-05-04 13:37 | 1.29881 | 22.06788 | 38829 ft | 482 kts | 103° |
| 2026-05-04 13:38 | 1.28272 | 22.13298 | 38831 ft | 482 kts | 103° |
| 2026-05-04 13:38 | 1.26663 | 22.19807 | 38828 ft | 482 kts | 103° |
| 2026-05-04 13:39 | 1.25054 | 22.26316 | 38830 ft | 482 kts | 103° |
| 2026-05-04 13:39 | 1.23445 | 22.32823 | 38828 ft | 482 kts | 103° |
| 2026-05-04 13:40 | 1.21836 | 22.39329 | 38829 ft | 482 kts | 103° |
| 2026-05-04 13:40 | 1.20228 | 22.45832 | 38828 ft | 482 kts | 103° |
| 2026-05-04 13:41 | 1.18630 | 22.52295 | 38827 ft | 482 kts | 103° |
| 2026-05-04 13:41 | 1.17021 | 22.58797 | 38830 ft | 482 kts | 103° |
| 2026-05-04 13:42 | 1.14606 | 22.68560 | 38828 ft | 483 kts | 103° |
| 2026-05-04 13:42 | 1.12995 | 22.75071 | 38825 ft | 483 kts | 103° |
| 2026-05-04 13:43 | 1.11384 | 22.81581 | 38826 ft | 483 kts | 103° |
| 2026-05-04 13:43 | 1.09772 | 22.88096 | 38826 ft | 483 kts | 103° |
| 2026-05-04 13:44 | 1.08160 | 22.94607 | 38833 ft | 483 kts | 103° |
| 2026-05-04 13:44 | 1.06547 | 23.01124 | 38828 ft | 483 kts | 103° |
| 2026-05-04 13:45 | 1.04933 | 23.07644 | 38831 ft | 483 kts | 103° |
| 2026-05-04 13:45 | 1.03318 | 23.14170 | 38831 ft | 484 kts | 103° |
| 2026-05-04 13:46 | 1.01701 | 23.20701 | 38833 ft | 484 kts | 103° |
| 2026-05-04 13:46 | 1.00084 | 23.27230 | 38840 ft | 484 kts | 103° |
| 2026-05-04 13:47 | 0.98468 | 23.33756 | 38839 ft | 484 kts | 103° |
| 2026-05-04 13:47 | 0.96851 | 23.40284 | 38839 ft | 484 kts | 103° |
| 2026-05-04 13:48 | 0.95234 | 23.46812 | 38841 ft | 484 kts | 103° |
| 2026-05-04 13:48 | 0.93618 | 23.53338 | 38843 ft | 484 kts | 103° |
| 2026-05-04 13:49 | 0.92000 | 23.59866 | 38839 ft | 484 kts | 103° |
| 2026-05-04 13:49 | 0.90383 | 23.66395 | 38841 ft | 484 kts | 103° |
| 2026-05-04 13:50 | 0.88764 | 23.72928 | 38845 ft | 484 kts | 103° |
| 2026-05-04 13:50 | 0.87146 | 23.79459 | 38848 ft | 484 kts | 103° |
| 2026-05-04 13:51 | 0.85527 | 23.85995 | 38845 ft | 485 kts | 103° |
| 2026-05-04 13:51 | 0.83905 | 23.92536 | 38850 ft | 485 kts | 103° |
| 2026-05-04 13:52 | 0.81749 | 24.01236 | 38850 ft | 485 kts | 103° |
| 2026-05-04 13:53 | 0.79866 | 24.08833 | 38854 ft | 485 kts | 103° |
| 2026-05-04 13:53 | 0.78246 | 24.15368 | 38854 ft | 485 kts | 103° |
| 2026-05-04 13:54 | 0.76089 | 24.24069 | 38853 ft | 485 kts | 104° |
| 2026-05-04 13:55 | 0.73657 | 24.33880 | 38862 ft | 485 kts | 104° |
| 2026-05-04 13:55 | 0.71225 | 24.43687 | 38865 ft | 485 kts | 104° |
| 2026-05-04 13:56 | 0.69602 | 24.50232 | 38871 ft | 485 kts | 104° |
| 2026-05-04 13:57 | 0.67185 | 24.60050 | 38877 ft | 485 kts | 103° |
| 2026-05-04 13:58 | 0.63972 | 24.73143 | 38876 ft | 485 kts | 103° |
| 2026-05-04 13:58 | 0.61563 | 24.82964 | 38876 ft | 485 kts | 104° |
| 2026-05-04 13:59 | 0.59956 | 24.89515 | 38888 ft | 485 kts | 104° |
| 2026-05-04 14:00 | 0.57546 | 24.99336 | 38882 ft | 485 kts | 104° |
| 2026-05-04 14:00 | 0.55137 | 25.09154 | 38884 ft | 485 kts | 104° |
| 2026-05-04 14:01 | 0.53528 | 25.15709 | 38884 ft | 486 kts | 104° |
| 2026-05-04 14:02 | 0.51112 | 25.25554 | 38881 ft | 487 kts | 104° |
| 2026-05-04 14:02 | 0.49604 | 25.32096 | 38898 ft | 486 kts | 96° |
| 2026-05-04 14:03 | 0.49140 | 25.38841 | 38894 ft | 488 kts | 94° |
| 2026-05-04 14:03 | 0.48725 | 25.45607 | 38890 ft | 488 kts | 94° |
| 2026-05-04 14:04 | 0.48087 | 25.55766 | 38894 ft | 489 kts | 94° |
| 2026-05-04 14:04 | 0.47662 | 25.62538 | 38897 ft | 489 kts | 94° |
| 2026-05-04 14:05 | 0.47027 | 25.72708 | 38894 ft | 489 kts | 94° |
| 2026-05-04 14:06 | 0.46601 | 25.79485 | 38898 ft | 489 kts | 94° |
| 2026-05-04 14:06 | 0.46178 | 25.86262 | 38892 ft | 488 kts | 94° |
| 2026-05-04 14:07 | 0.45754 | 25.93031 | 38892 ft | 488 kts | 94° |
| 2026-05-04 14:07 | 0.45330 | 25.99798 | 38886 ft | 488 kts | 94° |
| 2026-05-04 14:08 | 0.44906 | 26.06564 | 38885 ft | 488 kts | 94° |
| 2026-05-04 14:08 | 0.44483 | 26.13329 | 38880 ft | 488 kts | 94° |
| 2026-05-04 14:09 | 0.43856 | 26.23471 | 38880 ft | 487 kts | 94° |
| 2026-05-04 14:10 | 0.43239 | 26.33562 | 38877 ft | 487 kts | 94° |
| 2026-05-04 14:10 | 0.42826 | 26.40313 | 38878 ft | 487 kts | 94° |
| 2026-05-04 14:11 | 0.42413 | 26.47063 | 38877 ft | 486 kts | 94° |
| 2026-05-04 14:11 | 0.41793 | 26.57189 | 38878 ft | 487 kts | 94° |
| 2026-05-04 14:12 | 0.41380 | 26.63931 | 38872 ft | 486 kts | 94° |
| 2026-05-04 14:13 | 0.40761 | 26.74042 | 38879 ft | 486 kts | 93° |
| 2026-05-04 14:13 | 0.40349 | 26.80774 | 38873 ft | 485 kts | 93° |
| 2026-05-04 14:14 | 0.39936 | 26.87504 | 38871 ft | 485 kts | 93° |
| 2026-05-04 14:14 | 0.39320 | 26.97569 | 38869 ft | 484 kts | 93° |
| 2026-05-04 14:15 | 0.38498 | 27.10966 | 38863 ft | 483 kts | 93° |
| 2026-05-04 14:16 | 0.37884 | 27.20992 | 38855 ft | 481 kts | 93° |
| 2026-05-04 14:17 | 0.37271 | 27.30985 | 38848 ft | 479 kts | 94° |
| 2026-05-04 14:18 | 0.36660 | 27.40952 | 38841 ft | 478 kts | 94° |
| 2026-05-04 14:19 | 0.35846 | 27.54217 | 38837 ft | 478 kts | 94° |
| 2026-05-04 14:19 | 0.35440 | 27.60837 | 38832 ft | 477 kts | 94° |
| 2026-05-04 14:20 | 0.35038 | 27.67399 | 38829 ft | 476 kts | 94° |
| 2026-05-04 14:20 | 0.34633 | 27.73997 | 38832 ft | 476 kts | 94° |
| 2026-05-04 14:21 | 0.34026 | 27.83877 | 38824 ft | 474 kts | 94° |
| 2026-05-04 14:21 | 0.33623 | 27.90452 | 38826 ft | 474 kts | 94° |
| 2026-05-04 14:22 | 0.33219 | 27.97031 | 38824 ft | 474 kts | 94° |
| 2026-05-04 14:22 | 0.32815 | 28.03610 | 38824 ft | 474 kts | 94° |
| 2026-05-04 14:23 | 0.32209 | 28.13469 | 38830 ft | 474 kts | 94° |
| 2026-05-04 14:24 | 0.31806 | 28.20043 | 38831 ft | 474 kts | 94° |
| 2026-05-04 14:24 | 0.31402 | 28.26611 | 38833 ft | 474 kts | 94° |
| 2026-05-04 14:25 | 0.30999 | 28.33179 | 38836 ft | 473 kts | 94° |
| 2026-05-04 14:25 | 0.30394 | 28.43023 | 38839 ft | 473 kts | 94° |
| 2026-05-04 14:26 | 0.29990 | 28.49589 | 38844 ft | 474 kts | 94° |
| 2026-05-04 14:26 | 0.29587 | 28.56156 | 38845 ft | 474 kts | 94° |
| 2026-05-04 14:27 | 0.29183 | 28.62723 | 38849 ft | 474 kts | 94° |
| 2026-05-04 14:27 | 0.28779 | 28.69301 | 38854 ft | 474 kts | 94° |
| 2026-05-04 14:28 | 0.28374 | 28.75881 | 38858 ft | 475 kts | 94° |
| 2026-05-04 14:28 | 0.27972 | 28.82420 | 38867 ft | 475 kts | 94° |
| 2026-05-04 14:29 | 0.27162 | 28.95597 | 38876 ft | 475 kts | 94° |
| 2026-05-04 14:30 | 0.26757 | 29.02189 | 38884 ft | 476 kts | 94° |
| 2026-05-04 14:31 | 0.26148 | 29.12086 | 38893 ft | 476 kts | 94° |
| 2026-05-04 14:32 | 0.25335 | 29.25292 | 38901 ft | 476 kts | 94° |
| 2026-05-04 14:32 | 0.24929 | 29.31894 | 38903 ft | 476 kts | 94° |
| 2026-05-04 14:33 | 0.24512 | 29.38504 | 38917 ft | 477 kts | 94° |
| 2026-05-04 14:33 | 0.24049 | 29.45114 | 38918 ft | 477 kts | 93° |
| 2026-05-04 14:34 | 0.23599 | 29.51732 | 38928 ft | 478 kts | 94° |
| 2026-05-04 14:34 | 0.23233 | 29.58362 | 38942 ft | 478 kts | 93° |
| 2026-05-04 14:35 | 0.22826 | 29.64993 | 38955 ft | 478 kts | 94° |
| 2026-05-04 14:35 | 0.22436 | 29.71625 | 38969 ft | 478 kts | 93° |
| 2026-05-04 14:36 | 0.22041 | 29.78255 | 38980 ft | 478 kts | 93° |
| 2026-05-04 14:36 | 0.21647 | 29.84886 | 38979 ft | 478 kts | 93° |
| 2026-05-04 14:37 | 0.21253 | 29.91518 | 38976 ft | 478 kts | 93° |
| 2026-05-04 14:37 | 0.20873 | 29.98161 | 38976 ft | 479 kts | 93° |
| 2026-05-04 14:38 | 0.20489 | 30.04805 | 38971 ft | 479 kts | 93° |
| 2026-05-04 14:38 | 0.20106 | 30.11445 | 38969 ft | 478 kts | 93° |
| 2026-05-04 14:39 | 0.19724 | 30.18076 | 38964 ft | 478 kts | 93° |
| 2026-05-04 14:39 | 0.19406 | 30.23591 | 38970 ft | 479 kts | 93° |
| 2026-05-04 14:40 | 0.18769 | 30.34638 | 38973 ft | 479 kts | 93° |
| 2026-05-04 14:40 | 0.18385 | 30.41290 | 38967 ft | 480 kts | 93° |
| 2026-05-04 14:41 | 0.18066 | 30.46820 | 38966 ft | 480 kts | 93° |
| 2026-05-04 14:42 | 0.17298 | 30.60132 | 38978 ft | 480 kts | 93° |
| 2026-05-04 14:42 | 0.16857 | 30.66784 | 38974 ft | 479 kts | 94° |
| 2026-05-04 14:43 | 0.16421 | 30.73430 | 38981 ft | 480 kts | 94° |
| 2026-05-04 14:43 | 0.15988 | 30.80079 | 38979 ft | 480 kts | 94° |
| 2026-05-04 14:44 | 0.15549 | 30.86739 | 38972 ft | 480 kts | 94° |
| 2026-05-04 14:44 | 0.15115 | 30.93397 | 38973 ft | 480 kts | 94° |
| 2026-05-04 14:45 | 0.14677 | 31.00057 | 38977 ft | 480 kts | 94° |
| 2026-05-04 14:45 | 0.14242 | 31.06711 | 38974 ft | 480 kts | 94° |
| 2026-05-04 14:46 | 0.13806 | 31.13363 | 38975 ft | 480 kts | 94° |
| 2026-05-04 14:46 | 0.13370 | 31.20015 | 38975 ft | 480 kts | 94° |
| 2026-05-04 14:47 | 0.12934 | 31.26666 | 38964 ft | 479 kts | 94° |
| 2026-05-04 14:47 | 0.12499 | 31.33309 | 38959 ft | 479 kts | 94° |
| 2026-05-04 14:48 | 0.12067 | 31.39904 | 38937 ft | 479 kts | 94° |
| 2026-05-04 14:48 | 0.11636 | 31.46550 | 38933 ft | 479 kts | 94° |
| 2026-05-04 14:49 | 0.11202 | 31.53200 | 38920 ft | 480 kts | 94° |
| 2026-05-04 14:49 | 0.10770 | 31.59849 | 38926 ft | 480 kts | 94° |
| 2026-05-04 14:50 | 0.10336 | 31.66505 | 38924 ft | 481 kts | 94° |
| 2026-05-04 14:50 | 0.09902 | 31.73171 | 38924 ft | 481 kts | 94° |
| 2026-05-04 14:51 | 0.09468 | 31.79839 | 38923 ft | 481 kts | 94° |
| 2026-05-04 14:51 | 0.09033 | 31.86510 | 38929 ft | 481 kts | 94° |
| 2026-05-04 14:52 | 0.08599 | 31.93181 | 38929 ft | 481 kts | 94° |
| 2026-05-04 14:52 | 0.08164 | 31.99843 | 38928 ft | 481 kts | 94° |
| 2026-05-04 14:53 | 0.07731 | 32.06498 | 38931 ft | 480 kts | 93° |
| 2026-05-04 14:53 | 0.07298 | 32.13142 | 38952 ft | 479 kts | 93° |
| 2026-05-04 14:54 | 0.06865 | 32.19776 | 38984 ft | 477 kts | 93° |
| 2026-05-04 14:54 | 0.06437 | 32.26345 | 39012 ft | 477 kts | 93° |
| 2026-05-04 14:55 | 0.06007 | 32.32948 | 39039 ft | 476 kts | 93° |
| 2026-05-04 14:55 | 0.05578 | 32.39539 | 39050 ft | 475 kts | 93° |
| 2026-05-04 14:56 | 0.04606 | 32.46030 | 39073 ft | 474 kts | 107° |
| 2026-05-04 14:56 | 0.02650 | 32.52330 | 39058 ft | 475 kts | 106° |
| 2026-05-04 14:57 | 0.00689 | 32.58630 | 39032 ft | 475 kts | 106° |
| 2026-05-04 14:57 | -0.01268 | 32.64934 | 39007 ft | 475 kts | 106° |
| 2026-05-04 14:58 | -0.03227 | 32.71234 | 38978 ft | 475 kts | 106° |
| 2026-05-04 14:58 | -0.05183 | 32.77533 | 38951 ft | 475 kts | 106° |
| 2026-05-04 14:59 | -0.07143 | 32.83835 | 38945 ft | 475 kts | 106° |
| 2026-05-04 15:00 | -0.10079 | 32.93284 | 38947 ft | 475 kts | 106° |
| 2026-05-04 15:00 | -0.12038 | 32.99590 | 38946 ft | 475 kts | 106° |
| 2026-05-04 15:01 | -0.14977 | 33.09045 | 38944 ft | 475 kts | 106° |
| 2026-05-04 15:01 | -0.16935 | 33.15346 | 38945 ft | 475 kts | 106° |
| 2026-05-04 15:02 | -0.18892 | 33.21645 | 38948 ft | 474 kts | 106° |
| 2026-05-04 15:02 | -0.20846 | 33.27933 | 38950 ft | 474 kts | 106° |
| 2026-05-04 15:03 | -0.22787 | 33.34178 | 38950 ft | 474 kts | 106° |
| 2026-05-04 15:03 | -0.24742 | 33.40471 | 38963 ft | 475 kts | 106° |
| 2026-05-04 15:04 | -0.26703 | 33.46769 | 38966 ft | 475 kts | 108° |
| 2026-05-04 15:04 | -0.28796 | 33.53024 | 38965 ft | 475 kts | 106° |
| 2026-05-04 15:05 | -0.30866 | 33.59288 | 38972 ft | 474 kts | 107° |
| 2026-05-04 15:05 | -0.32962 | 33.65532 | 38970 ft | 474 kts | 107° |
| 2026-05-04 15:06 | -0.35032 | 33.71771 | 38977 ft | 473 kts | 107° |
| 2026-05-04 15:07 | -0.38145 | 33.81100 | 38981 ft | 471 kts | 107° |
| 2026-05-04 15:07 | -0.40214 | 33.87306 | 38978 ft | 471 kts | 107° |
| 2026-05-04 15:08 | -0.42284 | 33.93516 | 38989 ft | 471 kts | 107° |
| 2026-05-04 15:08 | -0.44178 | 33.99765 | 38993 ft | 470 kts | 104° |
| 2026-05-04 15:09 | -0.45915 | 34.06068 | 38992 ft | 471 kts | 104° |
| 2026-05-04 15:09 | -0.47640 | 34.12372 | 38997 ft | 471 kts | 104° |
| 2026-05-04 15:10 | -0.50238 | 34.21837 | 39001 ft | 471 kts | 104° |
| 2026-05-04 15:11 | -0.52833 | 34.31306 | 39013 ft | 471 kts | 104° |
| 2026-05-04 15:11 | -0.54566 | 34.37623 | 39014 ft | 471 kts | 104° |
| 2026-05-04 15:12 | -0.56298 | 34.43941 | 39019 ft | 472 kts | 104° |
| 2026-05-04 15:12 | -0.58031 | 34.50262 | 39032 ft | 471 kts | 104° |
| 2026-05-04 15:13 | -0.59766 | 34.56591 | 39034 ft | 471 kts | 104° |
| 2026-05-04 15:13 | -0.61624 | 34.62877 | 39040 ft | 472 kts | 105° |
| 2026-05-04 15:14 | -0.63441 | 34.69127 | 39050 ft | 472 kts | 105° |
| 2026-05-04 15:14 | -0.65337 | 34.75403 | 39063 ft | 472 kts | 105° |
| 2026-05-04 15:15 | -0.67194 | 34.81683 | 39072 ft | 471 kts | 105° |
| 2026-05-04 15:15 | -0.69072 | 34.87962 | 39080 ft | 472 kts | 105° |
| 2026-05-04 15:16 | -0.71875 | 34.97386 | 39081 ft | 472 kts | 105° |
| 2026-05-04 15:17 | -0.74683 | 35.06810 | 39091 ft | 472 kts | 105° |
| 2026-05-04 15:17 | -0.77489 | 35.16230 | 39098 ft | 471 kts | 105° |
| 2026-05-04 15:18 | -0.79359 | 35.22510 | 39106 ft | 471 kts | 105° |
| 2026-05-04 15:19 | -0.82161 | 35.31918 | 39117 ft | 471 kts | 105° |
| 2026-05-04 15:19 | -0.85537 | 35.41131 | 39127 ft | 473 kts | 112° |
| 2026-05-04 15:20 | -0.88187 | 35.47141 | 39134 ft | 473 kts | 112° |
| 2026-05-04 15:20 | -0.90841 | 35.53146 | 38895 ft | 470 kts | 111° |
| 2026-05-04 15:21 | -0.92162 | 35.56140 | 38235 ft | 472 kts | 112° |
| 2026-05-04 15:21 | -0.93488 | 35.59149 | 37612 ft | 474 kts | 112° |
| 2026-05-04 15:21 | -0.96139 | 35.65150 | 36374 ft | 477 kts | 112° |
| 2026-05-04 15:22 | -0.97478 | 35.68185 | 35731 ft | 478 kts | 112° |
| 2026-05-04 15:22 | -0.98824 | 35.71233 | 35093 ft | 480 kts | 113° |
| 2026-05-04 15:22 | -1.01455 | 35.77190 | 34749 ft | 457 kts | 113° |
| 2026-05-04 15:23 | -1.02726 | 35.80071 | 33788 ft | 450 kts | 113° |
| 2026-05-04 15:23 | -1.03981 | 35.82917 | 32796 ft | 445 kts | 113° |
| 2026-05-04 15:23 | -1.05225 | 35.85735 | 31844 ft | 442 kts | 113° |
| 2026-05-04 15:23 | -1.06453 | 35.88516 | 30930 ft | 433 kts | 113° |
| 2026-05-04 15:24 | -1.08837 | 35.93919 | 28983 ft | 417 kts | 113° |
| 2026-05-04 15:24 | -1.11130 | 35.99116 | 27044 ft | 402 kts | 113° |
| 2026-05-04 15:25 | -1.12248 | 36.01649 | 26134 ft | 395 kts | 114° |
| 2026-05-04 15:25 | -1.13346 | 36.04137 | 25245 ft | 388 kts | 114° |
| 2026-05-04 15:25 | -1.14428 | 36.06590 | 24381 ft | 382 kts | 114° |
| 2026-05-04 15:26 | -1.16543 | 36.11381 | 22511 ft | 372 kts | 114° |
| 2026-05-04 15:26 | -1.17574 | 36.13719 | 21659 ft | 364 kts | 114° |
| 2026-05-04 15:26 | -1.19580 | 36.18266 | 20003 ft | 352 kts | 114° |
| 2026-05-04 15:27 | -1.20558 | 36.20483 | 19205 ft | 346 kts | 114° |
| 2026-05-04 15:27 | -1.22475 | 36.24826 | 17489 ft | 337 kts | 113° |
| 2026-05-04 15:28 | -1.24344 | 36.29062 | 15735 ft | 329 kts | 113° |
| 2026-05-04 15:28 | -1.25260 | 36.31140 | 14913 ft | 325 kts | 113° |
| 2026-05-04 15:28 | -1.26759 | 36.34536 | 13515 ft | 318 kts | 112° |
| 2026-05-04 15:29 | -1.27642 | 36.36539 | 12836 ft | 308 kts | 112° |
| 2026-05-04 15:30 | -1.30702 | 36.43484 | 11725 ft | 285 kts | 112° |
| 2026-05-04 15:30 | -1.33041 | 36.48777 | 10865 ft | 268 kts | 112° |
| 2026-05-04 15:31 | -1.34555 | 36.52213 | 10695 ft | 270 kts | 112° |
| 2026-05-04 15:31 | -1.35317 | 36.53942 | 10594 ft | 273 kts | 112° |
| 2026-05-04 15:32 | -1.37604 | 36.59128 | 9836 ft | 275 kts | 112° |
| 2026-05-04 15:32 | -1.39145 | 36.62624 | 9077 ft | 274 kts | 112° |
| 2026-05-04 15:33 | -1.39489 | 36.66187 | 8728 ft | 259 kts | 86° |
| 2026-05-04 15:34 | -1.39070 | 36.71423 | 7897 ft | 237 kts | 87° |
| 2026-05-04 15:34 | -1.38949 | 36.73012 | 7696 ft | 221 kts | 87° |
| 2026-05-04 15:34 | -1.38727 | 36.75884 | 7430 ft | 193 kts | 88° |
| 2026-05-04 15:35 | -1.38533 | 36.78396 | 7234 ft | 172 kts | 88° |
| 2026-05-04 15:35 | -1.38446 | 36.79548 | 7226 ft | 158 kts | 88° |
| 2026-05-04 15:35 | -1.38365 | 36.80585 | 7171 ft | 147 kts | 88° |
| 2026-05-04 15:36 | -1.38204 | 36.82667 | 7026 ft | 153 kts | 88° |
| 2026-05-04 15:36 | -1.38123 | 36.83768 | 6836 ft | 163 kts | 88° |
| 2026-05-04 15:36 | -1.37746 | 36.84754 | 6695 ft | 154 kts | 55° |
| 2026-05-04 15:37 | -1.37025 | 36.85572 | 6637 ft | 167 kts | 63° |
| 2026-05-04 15:37 | -1.36469 | 36.86532 | 6573 ft | 154 kts | 59° |
| 2026-05-04 15:37 | -1.35832 | 36.87415 | 6361 ft | 161 kts | 60° |
| 2026-05-04 15:37 | -1.35169 | 36.88350 | 6143 ft | 168 kts | 57° |
| 2026-05-04 15:38 | -1.34460 | 36.89285 | 5890 ft | 170 kts | 57° |
| 2026-05-04 15:38 | -1.33784 | 36.90205 | 5675 ft | 157 kts | 60° |
| 2026-05-04 15:38 | -1.33168 | 36.91064 | 5412 ft | 150 kts | 58° |
| 2026-05-04 15:38 | -1.32587 | 36.91882 | 5341 ft | 130 kts | 54° |
| 2026-05-04 15:39 | -1.32225 | 36.92371 | 5321 ft | 52 kts | 54° |
| 2026-05-04 15:39 | -1.32016 | 36.92655 | 5316 ft | 46 kts | 55° |
| 2026-05-04 15:39 | -1.32116 | 36.92913 | 5318 ft | 20 kts | 144° |
| 2026-05-04 15:40 | -1.32227 | 36.92911 | 5318 ft | 18 kts | 223° |
| 2026-05-04 15:40 | -1.32320 | 36.92794 | 5332 ft | 25 kts | 233° |
| 2026-05-04 15:40 | -1.32421 | 36.92660 | 5336 ft | 23 kts | 233° |
| 2026-05-04 15:40 | -1.32512 | 36.92536 | 5332 ft | 21 kts | 236° |
| 2026-05-04 15:41 | -1.32591 | 36.92422 | 5336 ft | 18 kts | 232° |
| 2026-05-04 15:41 | -1.32663 | 36.92358 | 5334 ft | 11 kts | 187° |
| 2026-05-04 15:41 | -1.32726 | 36.92379 | 5334 ft | 9 kts | 155° |
| 2026-05-04 15:41 | -1.32776 | 36.92381 | 5331 ft | 8 kts | 208° |
| 2026-05-04 15:42 | -1.32829 | 36.92323 | 5331 ft | 15 kts | 230° |
| 2026-05-04 15:42 | -1.32925 | 36.92244 | 5335 ft | 19 kts | 208° |
| 2026-05-04 15:42 | -1.33054 | 36.92215 | 5331 ft | 19 kts | 176° |
| 2026-05-04 15:42 | -1.33184 | 36.92248 | 5332 ft | 19 kts | 150° |
| 2026-05-04 15:43 | -1.33302 | 36.92280 | 5330 ft | 16 kts | 179° |
| 2026-05-04 15:43 | -1.33366 | 36.92291 | 5330 ft | 5 kts | 155° |
| 2026-05-04 15:43 | -1.33397 | 36.92308 | 5335 ft | 6 kts | 143° |
| 2026-05-04 15:43 | -1.33434 | 36.92353 | 5333 ft | 3 kts | 94° |
| 2026-05-04 15:44 | -1.33421 | 36.92371 | 5333 ft | 5 kts | 28° |
| 2026-05-04 15:44 | -1.33397 | 36.92382 | 5335 ft | 5 kts | 25° |
| 2026-05-04 15:44 | -1.33374 | 36.92391 | 5332 ft | 3 kts | 19° |
| 2026-05-04 15:44 | -1.33366 | 36.92394 | 5333 ft | 0 kts | 19° |